createdAt,value
2016-03-06T00:00:54.748Z,4.31
2016-03-06T00:01:54.720Z,4.31
2016-03-06T00:02:54.706Z,4.19
2016-03-06T00:03:53.928Z,4.22
2016-03-06T00:04:54.634Z,4.22
2016-03-06T00:05:54.605Z,4.14
2016-03-06T00:06:54.566Z,4.22
2016-03-06T00:07:54.553Z,4.16
2016-03-06T00:08:54.524Z,4.12
2016-03-06T00:09:54.480Z,4.13
2016-03-06T00:10:54.465Z,4.06
2016-03-06T00:11:54.424Z,4.05
2016-03-06T00:12:54.413Z,4.1
2016-03-06T00:13:54.368Z,4.08
2016-03-06T00:14:54.339Z,4.13
2016-03-06T00:15:54.341Z,4.02
2016-03-06T00:16:54.266Z,4.02
2016-03-06T00:17:54.253Z,4.04
2016-03-06T00:18:54.224Z,4.01
2016-03-06T00:19:54.181Z,3.98
2016-03-06T00:20:54.152Z,4.01
2016-03-06T00:21:54.139Z,3.87
2016-03-06T00:22:54.095Z,3.98
2016-03-06T00:23:54.066Z,3.95
2016-03-06T00:24:54.053Z,3.99
2016-03-06T00:25:54.009Z,3.98
2016-03-06T00:26:53.981Z,4.04
2016-03-06T00:27:53.967Z,4.01
2016-03-06T00:28:53.924Z,3.92
2016-03-06T00:29:53.911Z,3.88
2016-03-06T00:30:53.867Z,3.88
2016-03-06T00:31:53.838Z,4.01
2016-03-06T00:32:53.794Z,3.96
2016-03-06T00:33:53.764Z,3.99
2016-03-06T00:34:53.768Z,3.92
2016-03-06T00:35:53.708Z,3.92
2016-03-06T00:36:53.680Z,3.91
2016-03-06T00:37:53.666Z,3.96
2016-03-06T00:38:53.622Z,3.92
2016-03-06T00:39:53.594Z,3.88
2016-03-06T00:40:53.580Z,3.94
2016-03-06T00:41:53.536Z,3.88
2016-03-06T00:42:53.524Z,3.86
2016-03-06T00:43:53.479Z,3.86
2016-03-06T00:44:53.452Z,3.91
2016-03-06T00:45:53.422Z,3.87
2016-03-06T00:46:53.379Z,3.78
2016-03-06T00:47:53.349Z,3.8
2016-03-06T00:48:53.337Z,3.74
2016-03-06T00:49:53.292Z,3.81
2016-03-06T00:50:53.265Z,3.83
2016-03-06T00:51:53.235Z,3.76
2016-03-06T00:52:53.207Z,3.8
2016-03-06T00:53:53.209Z,3.86
2016-03-06T00:54:53.150Z,3.8
2016-03-06T00:55:53.120Z,3.66
2016-03-06T00:56:53.093Z,3.8
2016-03-06T00:57:53.064Z,3.69
2016-03-06T00:58:53.036Z,3.76
2016-03-06T00:59:53.006Z,3.74
2016-03-06T01:00:52.963Z,3.74
2016-03-06T01:01:52.950Z,3.74
2016-03-06T01:02:52.906Z,3.66
2016-03-06T01:03:52.877Z,3.7
2016-03-06T01:04:52.864Z,3.68
2016-03-06T01:05:52.819Z,3.69
2016-03-06T01:06:52.792Z,3.76
2016-03-06T01:07:52.763Z,3.76
2016-03-06T01:08:52.609Z,3.7
2016-03-06T01:09:52.690Z,3.62
2016-03-06T01:10:52.666Z,3.76
2016-03-06T01:11:52.638Z,3.63
2016-03-06T01:12:52.610Z,3.62
2016-03-06T01:13:52.580Z,3.65
2016-03-06T01:14:52.552Z,3.68
2016-03-06T01:15:52.523Z,3.65
2016-03-06T01:16:52.495Z,3.63
2016-03-06T01:17:52.466Z,3.6
2016-03-06T01:18:52.423Z,3.62
2016-03-06T01:19:52.409Z,3.62
2016-03-06T01:20:52.365Z,3.63
2016-03-06T01:21:52.337Z,3.68
2016-03-06T01:22:52.323Z,3.68
2016-03-06T01:23:52.139Z,3.69
2016-03-06T01:24:52.251Z,3.63
2016-03-06T01:25:52.284Z,3.55
2016-03-06T01:26:52.178Z,3.58
2016-03-06T01:27:52.165Z,3.6
2016-03-06T01:28:52.137Z,3.68
2016-03-06T01:29:52.092Z,3.65
2016-03-06T01:30:52.064Z,3.63
2016-03-06T01:31:52.035Z,3.6
2016-03-06T01:32:52.006Z,3.6
2016-03-06T01:33:51.994Z,3.53
2016-03-06T01:34:51.950Z,3.48
2016-03-06T01:35:51.921Z,3.66
2016-03-06T01:36:51.892Z,3.48
2016-03-06T01:37:51.863Z,3.48
2016-03-06T01:38:51.835Z,3.58
2016-03-06T01:39:51.807Z,3.51
2016-03-06T01:40:51.763Z,3.55
2016-03-06T01:41:51.734Z,3.51
2016-03-06T01:42:51.721Z,3.48
2016-03-06T01:43:51.677Z,3.53
2016-03-06T01:44:51.649Z,3.42
2016-03-06T01:45:51.620Z,3.42
2016-03-06T01:46:51.591Z,3.45
2016-03-06T01:47:51.562Z,3.36
2016-03-06T01:48:51.518Z,3.4
2016-03-06T01:49:51.490Z,3.41
2016-03-06T01:50:51.477Z,3.45
2016-03-06T01:51:51.432Z,3.36
2016-03-06T01:52:51.420Z,3.34
2016-03-06T01:53:51.375Z,3.5
2016-03-06T01:54:51.347Z,3.28
2016-03-06T01:55:51.318Z,3.37
2016-03-06T01:56:51.290Z,3.32
2016-03-06T01:57:51.261Z,3.4
2016-03-06T01:58:51.217Z,3.28
2016-03-06T01:59:51.189Z,3.26
2016-03-06T02:00:51.176Z,3.31
2016-03-06T02:01:51.131Z,3.4
2016-03-06T02:02:51.103Z,3.28
2016-03-06T02:03:51.089Z,3.32
2016-03-06T02:04:51.046Z,3.41
2016-03-06T02:05:51.017Z,3.34
2016-03-06T02:06:50.973Z,3.41
2016-03-06T02:07:50.944Z,3.36
2016-03-06T02:08:50.932Z,3.31
2016-03-06T02:09:50.918Z,3.32
2016-03-06T02:10:50.858Z,3.25
2016-03-06T02:11:50.830Z,3.32
2016-03-06T02:12:50.802Z,3.29
2016-03-06T02:13:50.757Z,3.28
2016-03-06T02:14:50.744Z,3.26
2016-03-06T02:15:50.716Z,3.21
2016-03-06T02:16:50.688Z,3.23
2016-03-06T02:17:50.643Z,3.31
2016-03-06T02:18:50.615Z,3.23
2016-03-06T02:19:50.601Z,3.23
2016-03-06T02:20:50.557Z,3.13
2016-03-06T02:21:50.529Z,3.16
2016-03-06T02:22:50.500Z,3.1
2016-03-06T02:23:50.472Z,3.18
2016-03-06T02:24:50.428Z,3.22
2016-03-06T02:25:50.414Z,3.21
2016-03-06T02:26:50.371Z,3.14
2016-03-06T02:27:50.342Z,3.18
2016-03-06T02:28:50.314Z,3.13
2016-03-06T02:29:50.284Z,3.14
2016-03-06T02:30:50.256Z,3.05
2016-03-06T02:31:50.212Z,3.13
2016-03-06T02:32:50.200Z,3.11
2016-03-06T02:33:50.155Z,3.14
2016-03-06T02:34:50.127Z,3.05
2016-03-06T02:35:50.113Z,3.08
2016-03-06T02:36:50.086Z,3.13
2016-03-06T02:37:50.041Z,3.03
2016-03-06T02:38:49.997Z,3
2016-03-06T02:39:49.983Z,3.04
2016-03-06T02:40:49.939Z,2.98
2016-03-06T02:41:49.910Z,3.07
2016-03-06T02:42:49.882Z,3.04
2016-03-06T02:43:49.869Z,2.98
2016-03-06T02:44:49.825Z,3.1
2016-03-06T02:45:49.797Z,3.04
2016-03-06T02:46:49.784Z,3.11
2016-03-06T02:47:49.724Z,3.11
2016-03-06T02:48:49.711Z,3.07
2016-03-06T02:49:49.667Z,3.01
2016-03-06T02:50:49.638Z,3.11
2016-03-06T02:51:49.625Z,3.14
2016-03-06T02:52:49.581Z,3.07
2016-03-06T02:53:49.553Z,3.01
2016-03-06T02:54:49.524Z,2.97
2016-03-06T02:55:49.495Z,3.07
2016-03-06T02:56:49.451Z,2.95
2016-03-06T02:57:49.438Z,3.07
2016-03-06T02:58:49.394Z,3.01
2016-03-06T02:59:49.365Z,2.93
2016-03-06T03:00:49.353Z,2.97
2016-03-06T03:01:49.308Z,2.92
2016-03-06T03:02:49.281Z,3.05
2016-03-06T03:03:49.267Z,2.95
2016-03-06T03:04:49.208Z,2.92
2016-03-06T03:05:49.194Z,3.04
2016-03-06T03:06:49.150Z,2.97
2016-03-06T03:07:49.121Z,2.93
2016-03-06T03:08:49.094Z,2.92
2016-03-06T03:09:49.064Z,2.92
2016-03-06T03:10:49.052Z,2.86
2016-03-06T03:11:48.991Z,2.87
2016-03-06T03:12:48.979Z,2.87
2016-03-06T03:13:48.981Z,2.89
2016-03-06T03:14:48.922Z,2.87
2016-03-06T03:15:48.893Z,2.87
2016-03-06T03:16:48.849Z,2.85
2016-03-06T03:17:48.820Z,2.82
2016-03-06T03:18:48.792Z,2.71
2016-03-06T03:19:48.748Z,2.86
2016-03-06T03:20:48.735Z,2.8
2016-03-06T03:21:48.690Z,2.79
2016-03-06T03:22:48.662Z,2.83
2016-03-06T03:23:48.633Z,2.8
2016-03-06T03:24:48.605Z,2.79
2016-03-06T03:25:48.576Z,2.75
2016-03-06T03:26:48.532Z,2.83
2016-03-06T03:27:48.519Z,2.82
2016-03-06T03:28:48.475Z,2.74
2016-03-06T03:29:48.445Z,2.8
2016-03-06T03:30:48.434Z,2.8
2016-03-06T03:31:48.389Z,2.74
2016-03-06T03:32:48.361Z,2.69
2016-03-06T03:33:48.316Z,2.77
2016-03-06T03:34:48.289Z,2.64
2016-03-06T03:35:48.275Z,2.68
2016-03-06T03:36:48.231Z,2.68
2016-03-06T03:37:48.202Z,2.64
2016-03-06T03:38:48.172Z,2.69
2016-03-06T03:39:48.129Z,2.65
2016-03-06T03:40:48.069Z,2.64
2016-03-06T03:41:48.025Z,2.64
2016-03-06T03:42:47.999Z,2.67
2016-03-06T03:43:47.940Z,2.68
2016-03-06T03:44:47.906Z,2.67
2016-03-06T03:45:47.872Z,2.57
2016-03-06T03:46:47.822Z,2.67
2016-03-06T03:47:47.804Z,2.54
2016-03-06T03:48:47.770Z,2.57
2016-03-06T03:49:47.725Z,2.46
2016-03-06T03:50:47.693Z,2.57
2016-03-06T03:51:47.663Z,2.49
2016-03-06T03:52:47.616Z,2.43
2016-03-06T03:53:47.602Z,2.43
2016-03-06T03:54:47.589Z,2.43
2016-03-06T03:55:47.528Z,2.49
2016-03-06T03:56:47.500Z,2.46
2016-03-06T03:57:47.488Z,2.49
2016-03-06T03:58:47.443Z,2.47
2016-03-06T03:59:47.413Z,2.39
2016-03-06T04:00:47.369Z,2.5
2016-03-06T04:01:47.340Z,2.39
2016-03-06T04:02:47.327Z,2.42
2016-03-06T04:03:47.282Z,2.32
2016-03-06T04:04:47.268Z,2.39
2016-03-06T04:05:47.225Z,2.39
2016-03-06T04:06:47.180Z,2.42
2016-03-06T04:07:47.167Z,2.43
2016-03-06T04:08:47.124Z,2.39
2016-03-06T04:09:47.095Z,2.42
2016-03-06T04:10:47.066Z,2.43
2016-03-06T04:11:47.038Z,2.35
2016-03-06T04:12:46.993Z,2.39
2016-03-06T04:13:46.981Z,2.39
2016-03-06T04:14:46.936Z,2.43
2016-03-06T04:15:46.908Z,2.39
2016-03-06T04:16:46.879Z,2.39
2016-03-06T04:17:46.835Z,2.33
2016-03-06T04:18:46.822Z,2.46
2016-03-06T04:19:46.794Z,2.49
2016-03-06T04:20:46.828Z,2.42
2016-03-06T04:21:46.720Z,2.5
2016-03-06T04:22:46.692Z,2.47
2016-03-06T04:23:46.648Z,2.46
2016-03-06T04:24:46.635Z,2.44
2016-03-06T04:25:46.591Z,2.47
2016-03-06T04:26:46.563Z,2.53
2016-03-06T04:27:46.550Z,2.44
2016-03-06T04:28:46.505Z,2.5
2016-03-06T04:29:46.477Z,2.5
2016-03-06T04:30:46.432Z,2.53
2016-03-06T04:31:46.405Z,2.64
2016-03-06T04:32:46.375Z,2.51
2016-03-06T04:33:46.346Z,2.51
2016-03-06T04:34:46.319Z,2.53
2016-03-06T04:35:46.290Z,2.57
2016-03-06T04:36:46.261Z,2.64
2016-03-06T04:37:46.232Z,2.5
2016-03-06T04:38:46.188Z,2.62
2016-03-06T04:39:46.160Z,2.56
2016-03-06T04:40:46.131Z,2.6
2016-03-06T04:41:46.103Z,2.54
2016-03-06T04:42:46.074Z,2.53
2016-03-06T04:43:46.030Z,2.56
2016-03-06T04:44:46.001Z,2.57
2016-03-06T04:45:45.973Z,2.6
2016-03-06T04:46:45.945Z,2.57
2016-03-06T04:47:45.931Z,2.57
2016-03-06T04:48:45.965Z,2.61
2016-03-06T04:49:45.859Z,2.65
2016-03-06T04:50:45.830Z,2.65
2016-03-06T04:51:45.786Z,2.68
2016-03-06T04:52:45.758Z,2.61
2016-03-06T04:53:45.729Z,2.64
2016-03-06T04:54:45.701Z,2.62
2016-03-06T04:55:45.672Z,2.62
2016-03-06T04:56:45.679Z,2.68
2016-03-06T04:57:45.619Z,2.67
2016-03-06T04:58:45.575Z,2.6
2016-03-06T04:59:45.547Z,2.62
2016-03-06T05:00:45.518Z,2.67
2016-03-06T05:01:45.474Z,2.65
2016-03-06T05:02:45.445Z,2.62
2016-03-06T05:03:45.417Z,2.68
2016-03-06T05:04:45.404Z,2.67
2016-03-06T05:05:45.376Z,2.67
2016-03-06T05:06:45.315Z,2.6
2016-03-06T05:07:45.302Z,2.67
2016-03-06T05:08:45.259Z,2.62
2016-03-06T05:09:45.229Z,2.62
2016-03-06T05:10:45.201Z,2.68
2016-03-06T05:11:45.188Z,2.68
2016-03-06T05:12:45.144Z,2.67
2016-03-06T05:13:45.115Z,2.61
2016-03-06T05:14:45.087Z,2.62
2016-03-06T05:15:45.059Z,2.64
2016-03-06T05:16:45.014Z,2.6
2016-03-06T05:17:45.001Z,2.67
2016-03-06T05:18:44.957Z,2.71
2016-03-06T05:19:44.928Z,2.67
2016-03-06T05:20:44.900Z,2.64
2016-03-06T05:21:44.856Z,2.64
2016-03-06T05:22:44.827Z,2.64
2016-03-06T05:23:44.814Z,2.64
2016-03-06T05:24:44.770Z,2.6
2016-03-06T05:25:44.742Z,2.64
2016-03-06T05:26:44.714Z,2.57
2016-03-06T05:27:44.669Z,2.6
2016-03-06T05:28:44.640Z,2.61
2016-03-06T05:29:44.628Z,2.54
2016-03-06T05:30:44.583Z,2.56
2016-03-06T05:31:44.554Z,2.53
2016-03-06T05:32:44.526Z,2.56
2016-03-06T05:33:44.482Z,2.54
2016-03-06T05:34:44.454Z,2.64
2016-03-06T05:35:44.424Z,2.64
2016-03-06T05:36:44.396Z,2.57
2016-03-06T05:37:44.368Z,2.56
2016-03-06T05:38:44.340Z,2.61
2016-03-06T05:39:44.310Z,2.67
2016-03-06T05:40:44.265Z,2.67
2016-03-06T05:41:44.238Z,2.64
2016-03-06T05:42:44.209Z,2.68
2016-03-06T05:43:44.181Z,2.62
2016-03-06T05:44:44.152Z,2.68
2016-03-06T05:45:44.123Z,2.62
2016-03-06T05:46:44.095Z,2.62
2016-03-06T05:47:44.051Z,2.65
2016-03-06T05:48:44.022Z,2.61
2016-03-06T05:49:43.994Z,2.68
2016-03-06T05:50:43.965Z,2.75
2016-03-06T05:51:43.936Z,2.74
2016-03-06T05:52:43.908Z,2.77
2016-03-06T05:53:43.880Z,2.71
2016-03-06T05:54:43.850Z,2.8
2016-03-06T05:55:43.806Z,2.8
2016-03-06T05:56:43.778Z,2.8
2016-03-06T05:57:43.749Z,2.75
2016-03-06T05:58:43.721Z,2.83
2016-03-06T05:59:43.692Z,2.74
2016-03-06T06:00:43.694Z,2.85
2016-03-06T06:01:43.636Z,2.87
2016-03-06T06:02:43.607Z,2.89
2016-03-06T06:03:43.562Z,2.9
2016-03-06T06:04:43.535Z,2.9
2016-03-06T06:05:43.521Z,2.87
2016-03-06T06:06:43.476Z,2.83
2016-03-06T06:07:43.449Z,2.92
2016-03-06T06:08:43.420Z,2.97
2016-03-06T06:09:43.423Z,2.97
2016-03-06T06:10:43.347Z,2.98
2016-03-06T06:11:43.334Z,2.95
2016-03-06T06:12:43.306Z,2.9
2016-03-06T06:13:43.262Z,2.95
2016-03-06T06:14:43.232Z,3.01
2016-03-06T06:15:43.203Z,3.05
2016-03-06T06:16:43.176Z,3.14
2016-03-06T06:17:43.131Z,3.05
2016-03-06T06:18:43.103Z,3.01
2016-03-06T06:19:43.105Z,3.14
2016-03-06T06:20:43.045Z,3.1
2016-03-06T06:21:43.017Z,3.11
2016-03-06T06:22:42.989Z,3.21
2016-03-06T06:23:42.960Z,3.21
2016-03-06T06:24:42.947Z,3.14
2016-03-06T06:25:42.903Z,3.21
2016-03-06T06:26:42.874Z,3.11
2016-03-06T06:27:42.675Z,3.26
2016-03-06T06:28:42.817Z,3.19
2016-03-06T06:29:42.772Z,3.26
2016-03-06T06:30:42.760Z,3.31
2016-03-06T06:31:42.575Z,3.28
2016-03-06T06:32:42.688Z,3.31
2016-03-06T06:33:42.658Z,3.31
2016-03-06T06:34:42.630Z,3.36
2016-03-06T06:35:42.601Z,3.28
2016-03-06T06:36:42.574Z,3.44
2016-03-06T06:37:42.529Z,3.36
2016-03-06T06:38:42.515Z,3.42
2016-03-06T06:39:42.472Z,3.44
2016-03-06T06:40:42.459Z,3.48
2016-03-06T06:41:42.415Z,3.51
2016-03-06T06:42:42.386Z,3.55
2016-03-06T06:43:42.373Z,3.47
2016-03-06T06:44:42.329Z,3.55
2016-03-06T06:45:42.301Z,3.53
2016-03-06T06:46:42.272Z,3.59
2016-03-06T06:47:42.243Z,3.56
2016-03-06T06:48:42.215Z,3.62
2016-03-06T06:49:42.171Z,3.6
2016-03-06T06:50:42.158Z,3.66
2016-03-06T06:51:42.113Z,3.68
2016-03-06T06:52:42.084Z,3.63
2016-03-06T06:53:42.072Z,3.62
2016-03-06T06:54:42.027Z,3.74
2016-03-06T06:55:42.015Z,3.73
2016-03-06T06:56:41.970Z,3.76
2016-03-06T06:57:41.942Z,3.8
2016-03-06T06:58:41.913Z,3.8
2016-03-06T06:59:41.900Z,3.83
2016-03-06T07:00:41.856Z,3.78
2016-03-06T07:01:41.828Z,3.8
2016-03-06T07:02:41.799Z,3.77
2016-03-06T07:03:41.771Z,3.83
2016-03-06T07:04:41.742Z,3.87
2016-03-06T07:05:41.542Z,3.87
2016-03-06T07:06:41.674Z,3.96
2016-03-06T07:07:41.662Z,3.92
2016-03-06T07:08:41.617Z,4.01
2016-03-06T07:09:41.589Z,4.04
2016-03-06T07:10:41.576Z,3.91
2016-03-06T07:11:41.532Z,3.95
2016-03-06T07:12:41.503Z,3.91
2016-03-06T07:13:41.490Z,3.98
2016-03-06T07:14:41.446Z,3.96
2016-03-06T07:15:41.433Z,4.04
2016-03-06T07:16:41.389Z,3.99
2016-03-06T07:17:41.361Z,4.13
2016-03-06T07:18:41.347Z,4.04
2016-03-06T07:19:41.303Z,4.01
2016-03-06T07:20:41.274Z,3.99
2016-03-06T07:21:41.246Z,4.1
2016-03-06T07:22:41.217Z,4.05
2016-03-06T07:23:41.189Z,4.04
2016-03-06T07:24:41.160Z,4.06
2016-03-06T07:25:41.132Z,4.17
2016-03-06T07:26:41.103Z,4.06
2016-03-06T07:27:41.059Z,4.04
2016-03-06T07:28:41.046Z,4.06
2016-03-06T07:29:41.018Z,4.05
2016-03-06T07:30:40.989Z,4.02
2016-03-06T07:31:40.961Z,4.06
2016-03-06T07:32:40.932Z,4.06
2016-03-06T07:33:40.904Z,3.99
2016-03-06T07:34:40.859Z,4.06
2016-03-06T07:35:40.830Z,4.17
2016-03-06T07:36:40.818Z,4.06
2016-03-06T07:37:40.773Z,4.06
2016-03-06T07:38:40.760Z,3.99
2016-03-06T07:39:40.716Z,4.05
2016-03-06T07:40:40.687Z,4.04
2016-03-06T07:41:40.675Z,4.06
2016-03-06T07:42:40.631Z,4.06
2016-03-06T07:43:40.602Z,4.12
2016-03-06T07:44:40.589Z,4.05
2016-03-06T07:45:40.545Z,4.02
2016-03-06T07:46:40.517Z,4.04
2016-03-06T07:47:40.503Z,4.05
2016-03-06T07:48:40.459Z,4.1
2016-03-06T07:49:40.431Z,4.16
2016-03-06T07:50:40.402Z,4.22
2016-03-06T07:51:40.373Z,4.24
2016-03-06T07:52:40.360Z,4.2
2016-03-06T07:53:40.332Z,4.28
2016-03-06T07:54:40.288Z,4.3
2016-03-06T07:55:40.274Z,4.28
2016-03-06T07:56:40.230Z,4.3
2016-03-06T07:57:40.202Z,4.24
2016-03-06T07:58:40.189Z,4.3
2016-03-06T07:59:40.161Z,4.28
2016-03-06T08:00:40.116Z,4.3
2016-03-06T08:01:40.088Z,4.31
2016-03-06T08:02:40.060Z,4.31
2016-03-06T08:03:40.046Z,4.3
2016-03-06T08:04:40.002Z,4.35
2016-03-06T08:05:39.981Z,4.32
2016-03-06T08:06:39.953Z,4.4
2016-03-06T08:07:39.924Z,4.44
2016-03-06T08:08:39.896Z,4.41
2016-03-06T08:09:39.867Z,4.5
2016-03-06T08:10:39.838Z,4.48
2016-03-06T08:11:39.809Z,4.49
2016-03-06T08:12:39.781Z,4.49
2016-03-06T08:13:39.753Z,4.56
2016-03-06T08:14:39.740Z,4.56
2016-03-06T08:15:39.695Z,4.68
2016-03-06T08:16:39.667Z,4.7
2016-03-06T08:17:39.638Z,4.75
2016-03-06T08:18:39.610Z,4.8
2016-03-06T08:19:39.597Z,4.84
2016-03-06T08:20:39.553Z,4.9
2016-03-06T08:21:39.539Z,4.96
2016-03-06T08:22:39.512Z,5.11
2016-03-06T08:23:39.467Z,4.99
2016-03-06T08:24:39.454Z,5.08
2016-03-06T08:25:39.411Z,5.14
2016-03-06T08:26:39.397Z,5.26
2016-03-06T08:27:39.369Z,5.3
2016-03-06T08:28:39.340Z,5.39
2016-03-06T08:29:39.311Z,5.29
2016-03-06T08:30:39.298Z,5.38
2016-03-06T08:31:39.269Z,5.5
2016-03-06T08:32:39.241Z,5.41
2016-03-06T08:33:39.212Z,5.54
2016-03-06T08:34:39.184Z,5.54
2016-03-06T08:35:39.452Z,5.64
2016-03-06T08:36:39.127Z,5.68
2016-03-06T08:37:39.114Z,5.69
2016-03-06T08:38:39.071Z,5.71
2016-03-06T08:39:39.057Z,5.75
2016-03-06T08:40:39.028Z,5.86
2016-03-06T08:41:38.985Z,5.87
2016-03-06T08:42:38.971Z,5.86
2016-03-06T08:43:38.943Z,5.84
2016-03-06T08:44:38.915Z,5.91
2016-03-06T08:45:38.886Z,5.98
2016-03-06T08:46:38.857Z,6.04
2016-03-06T08:47:38.828Z,6.09
2016-03-06T08:48:38.815Z,6.11
2016-03-06T08:49:38.787Z,6.14
2016-03-06T08:50:38.758Z,6.16
2016-03-06T08:51:38.762Z,6.09
2016-03-06T08:52:38.701Z,6.17
2016-03-06T08:53:38.689Z,6.22
2016-03-06T08:54:38.660Z,6.11
2016-03-06T08:55:38.631Z,6.3
2016-03-06T08:56:38.603Z,6.26
2016-03-06T08:57:38.574Z,6.22
2016-03-06T08:58:38.546Z,6.24
2016-03-06T08:59:38.549Z,6.12
2016-03-06T09:00:38.505Z,6.3
2016-03-06T09:01:38.475Z,6.31
2016-03-06T09:02:38.447Z,6.39
2016-03-06T09:03:38.419Z,6.35
2016-03-06T09:04:38.405Z,6.41
2016-03-06T09:05:38.376Z,6.49
2016-03-06T09:06:38.349Z,6.51
2016-03-06T09:07:38.335Z,6.49
2016-03-06T09:08:38.291Z,6.49
2016-03-06T09:09:38.279Z,6.48
2016-03-06T09:10:38.249Z,6.52
2016-03-06T09:11:38.221Z,6.33
2016-03-06T09:12:38.193Z,6.12
2016-03-06T09:13:38.179Z,6.16
2016-03-06T09:14:38.135Z,6.11
2016-03-06T09:15:38.123Z,5.99
2016-03-06T09:16:38.109Z,6.05
2016-03-06T09:17:38.066Z,5.94
2016-03-06T09:18:38.053Z,5.91
2016-03-06T09:19:38.023Z,5.93
2016-03-06T09:20:37.996Z,5.86
2016-03-06T09:21:37.983Z,5.83
2016-03-06T09:22:37.938Z,5.83
2016-03-06T09:23:37.909Z,5.82
2016-03-06T09:24:37.897Z,5.68
2016-03-06T09:25:37.853Z,5.68
2016-03-06T09:26:37.839Z,5.75
2016-03-06T09:27:37.811Z,5.69
2016-03-06T09:28:37.782Z,5.71
2016-03-06T09:29:37.754Z,5.82
2016-03-06T09:30:37.741Z,5.75
2016-03-06T09:31:37.697Z,5.75
2016-03-06T09:32:37.669Z,5.72
2016-03-06T09:33:37.640Z,5.72
2016-03-06T09:34:37.627Z,5.72
2016-03-06T09:35:37.599Z,5.69
2016-03-06T09:36:37.569Z,5.66
2016-03-06T09:37:37.541Z,5.71
2016-03-06T09:38:37.513Z,5.73
2016-03-06T09:39:37.484Z,5.73
2016-03-06T09:40:37.455Z,5.83
2016-03-06T09:41:37.427Z,5.83
2016-03-06T09:42:37.415Z,5.9
2016-03-06T09:43:37.385Z,5.89
2016-03-06T09:44:37.356Z,5.98
2016-03-06T09:45:37.329Z,5.94
2016-03-06T09:46:37.300Z,6.08
2016-03-06T09:47:37.286Z,6.01
2016-03-06T09:48:37.243Z,6.02
2016-03-06T09:49:37.229Z,6.01
2016-03-06T09:50:37.201Z,6.22
2016-03-06T09:51:37.173Z,6.17
2016-03-06T09:52:37.144Z,6.28
2016-03-06T09:53:37.115Z,6.28
2016-03-06T09:54:37.103Z,6.44
2016-03-06T09:55:37.058Z,6.49
2016-03-06T09:56:37.045Z,6.46
2016-03-06T09:57:37.001Z,6.42
2016-03-06T09:58:36.989Z,6.45
2016-03-06T09:59:36.960Z,6.49
2016-03-06T10:00:36.946Z,6.48
2016-03-06T10:01:36.903Z,6.67
2016-03-06T10:02:36.889Z,6.74
2016-03-06T10:03:36.860Z,6.75
2016-03-06T10:04:36.833Z,6.84
2016-03-06T10:05:36.804Z,6.92
2016-03-06T10:06:36.775Z,7
2016-03-06T10:07:36.763Z,7.03
2016-03-06T10:08:36.749Z,7
2016-03-06T10:09:36.705Z,7.05
2016-03-06T10:10:36.677Z,7.03
2016-03-06T10:11:36.648Z,7.02
2016-03-06T10:12:36.635Z,7.05
2016-03-06T10:13:36.623Z,7.07
2016-03-06T10:14:36.578Z,7.1
2016-03-06T10:15:36.550Z,7.25
2016-03-06T10:16:36.521Z,7.17
2016-03-06T10:17:36.508Z,7.28
2016-03-06T10:18:36.479Z,7.21
2016-03-06T10:19:36.451Z,7.29
2016-03-06T10:20:36.437Z,7.4
2016-03-06T10:21:36.472Z,7.47
2016-03-06T10:22:36.381Z,7.47
2016-03-06T10:23:36.368Z,7.61
2016-03-06T10:24:36.339Z,7.76
2016-03-06T10:25:36.311Z,7.79
2016-03-06T10:26:36.298Z,7.94
2016-03-06T10:27:36.269Z,8.01
2016-03-06T10:28:36.256Z,7.98
2016-03-06T10:29:36.212Z,8.05
2016-03-06T10:30:36.199Z,7.97
2016-03-06T10:31:36.172Z,7.9
2016-03-06T10:32:36.158Z,7.8
2016-03-06T10:33:36.144Z,7.82
2016-03-06T10:34:36.101Z,7.83
2016-03-06T10:35:36.088Z,7.72
2016-03-06T10:36:36.059Z,7.75
2016-03-06T10:37:36.030Z,7.72
2016-03-06T10:38:36.002Z,7.72
2016-03-06T10:39:35.989Z,7.73
2016-03-06T10:40:35.976Z,7.75
2016-03-06T10:41:35.948Z,7.7
2016-03-06T10:42:35.919Z,7.75
2016-03-06T10:43:35.890Z,7.77
2016-03-06T10:44:35.862Z,7.76
2016-03-06T10:45:35.849Z,7.73
2016-03-06T10:46:35.836Z,7.75
2016-03-06T10:47:35.793Z,7.75
2016-03-06T10:48:35.779Z,7.7
2016-03-06T10:49:35.750Z,7.8
2016-03-06T10:50:35.737Z,7.85
2016-03-06T10:51:35.692Z,7.79
2016-03-06T10:52:35.681Z,7.82
2016-03-06T10:53:35.667Z,7.91
2016-03-06T10:54:35.623Z,8
2016-03-06T10:55:35.611Z,7.95
2016-03-06T10:56:35.581Z,8.03
2016-03-06T10:57:35.569Z,8.12
2016-03-06T10:58:35.540Z,8.19
2016-03-06T10:59:35.511Z,8.24
2016-03-06T11:00:35.483Z,8.23
2016-03-06T11:01:35.470Z,8.2
2016-03-06T11:02:35.442Z,8.06
2016-03-06T11:03:35.428Z,8.15
2016-03-06T11:04:35.400Z,8.09
2016-03-06T11:05:35.372Z,8.05
2016-03-06T11:06:35.358Z,8.18
2016-03-06T11:07:35.470Z,8.19
2016-03-06T11:08:35.317Z,8.15
2016-03-06T11:09:35.288Z,8.18
2016-03-06T11:10:35.260Z,8.2
2016-03-06T11:11:35.231Z,8.36
2016-03-06T11:12:35.218Z,8.44
2016-03-06T11:13:35.190Z,8.38
2016-03-06T11:14:35.162Z,8.58
2016-03-06T11:15:35.148Z,8.55
2016-03-06T11:16:35.120Z,8.69
2016-03-06T11:17:35.091Z,8.7
2016-03-06T11:18:35.063Z,8.82
2016-03-06T11:19:35.050Z,8.79
2016-03-06T11:20:35.037Z,8.79
2016-03-06T11:21:34.993Z,8.79
2016-03-06T11:22:34.979Z,8.76
2016-03-06T11:23:34.967Z,8.66
2016-03-06T11:24:34.922Z,8.64
2016-03-06T11:25:34.926Z,8.63
2016-03-06T11:26:34.897Z,8.56
2016-03-06T11:27:34.865Z,8.6
2016-03-06T11:28:34.836Z,8.58
2016-03-06T11:29:34.840Z,8.58
2016-03-06T11:30:34.811Z,8.61
2016-03-06T11:31:34.782Z,8.64
2016-03-06T11:32:34.598Z,8.76
2016-03-06T11:33:34.725Z,8.78
2016-03-06T11:34:34.713Z,8.79
2016-03-06T11:35:34.684Z,8.92
2016-03-06T11:36:34.671Z,8.89
2016-03-06T11:37:34.633Z,8.73
2016-03-06T11:38:34.619Z,8.76
2016-03-06T11:39:34.592Z,8.81
2016-03-06T11:40:34.563Z,8.85
2016-03-06T11:41:34.674Z,8.84
2016-03-06T11:42:34.522Z,8.81
2016-03-06T11:43:34.492Z,8.84
2016-03-06T11:44:34.494Z,8.92
2016-03-06T11:45:34.467Z,8.94
2016-03-06T11:46:34.438Z,8.95
2016-03-06T11:47:34.410Z,9
2016-03-06T11:48:34.381Z,9.08
2016-03-06T11:49:34.368Z,9.03
2016-03-06T11:50:34.340Z,9.06
2016-03-06T11:51:34.326Z,9.06
2016-03-06T11:52:34.298Z,9.16
2016-03-06T11:53:34.285Z,9.23
2016-03-06T11:54:34.257Z,9.23
2016-03-06T11:55:34.243Z,9.29
2016-03-06T11:56:34.215Z,9.29
2016-03-06T11:57:34.187Z,9.46
2016-03-06T11:58:34.173Z,9.59
2016-03-06T11:59:34.160Z,9.72
2016-03-06T12:00:34.117Z,9.69
2016-03-06T12:01:34.119Z,9.79
2016-03-06T12:02:34.076Z,9.87
2016-03-06T12:03:34.062Z,9.92
2016-03-06T12:04:34.034Z,9.97
2016-03-06T12:05:34.036Z,10.02
2016-03-06T12:06:33.991Z,9.98
2016-03-06T12:07:33.995Z,9.89
2016-03-06T12:08:33.950Z,9.92
2016-03-06T12:09:33.937Z,9.95
2016-03-06T12:10:33.925Z,9.97
2016-03-06T12:11:33.896Z,9.91
2016-03-06T12:12:33.883Z,9.98
2016-03-06T12:13:33.855Z,9.89
2016-03-06T12:14:33.841Z,10.07
2016-03-06T12:15:33.828Z,10.02
2016-03-06T12:16:33.800Z,10.16
2016-03-06T12:17:33.771Z,10.09
2016-03-06T12:18:33.758Z,10.04
2016-03-06T12:19:33.729Z,10.05
2016-03-06T12:20:33.716Z,10.02
2016-03-06T12:21:33.688Z,10.04
2016-03-06T12:22:33.676Z,10.04
2016-03-06T12:23:33.646Z,10.02
2016-03-06T12:24:33.635Z,10.13
2016-03-06T12:25:33.605Z,9.99
2016-03-06T12:26:33.576Z,10.15
2016-03-06T12:27:33.580Z,10.05
2016-03-06T12:28:33.551Z,9.99
2016-03-06T12:29:33.522Z,9.92
2016-03-06T12:30:33.493Z,9.83
2016-03-06T12:31:33.326Z,9.86
2016-03-06T12:32:33.453Z,9.89
2016-03-06T12:33:33.439Z,9.91
2016-03-06T12:34:33.411Z,9.86
2016-03-06T12:35:33.398Z,9.92
2016-03-06T12:36:33.369Z,9.86
2016-03-06T12:37:33.341Z,9.91
2016-03-06T12:38:33.328Z,9.92
2016-03-06T12:39:33.300Z,9.94
2016-03-06T12:40:33.286Z,9.87
2016-03-06T12:41:33.320Z,9.77
2016-03-06T12:42:33.245Z,9.83
2016-03-06T12:43:33.216Z,9.89
2016-03-06T12:44:33.219Z,9.94
2016-03-06T12:45:33.173Z,9.77
2016-03-06T12:46:33.147Z,9.8
2016-03-06T12:47:33.122Z,9.77
2016-03-06T12:48:33.081Z,9.8
2016-03-06T12:49:33.055Z,9.77
2016-03-06T12:50:33.015Z,9.86
2016-03-06T12:51:32.981Z,9.98
2016-03-06T12:52:32.965Z,9.97
2016-03-06T12:53:32.932Z,9.95
2016-03-06T12:54:32.915Z,9.94
2016-03-06T12:55:32.898Z,10.04
2016-03-06T12:56:32.868Z,10.02
2016-03-06T12:57:32.838Z,9.97
2016-03-06T12:58:32.823Z,9.87
2016-03-06T12:59:32.794Z,9.72
2016-03-06T13:00:32.779Z,9.73
2016-03-06T13:01:32.766Z,9.77
2016-03-06T13:02:32.736Z,9.86
2016-03-06T13:03:32.706Z,9.8
2016-03-06T13:04:32.694Z,9.86
2016-03-06T13:05:32.679Z,9.94
2016-03-06T13:06:32.650Z,9.79
2016-03-06T13:07:32.621Z,9.72
2016-03-06T13:08:32.624Z,9.72
2016-03-06T13:09:32.595Z,9.73
2016-03-06T13:10:32.566Z,9.69
2016-03-06T13:11:32.538Z,9.66
2016-03-06T13:12:32.524Z,9.59
2016-03-06T13:13:32.496Z,9.39
2016-03-06T13:14:32.468Z,9.46
2016-03-06T13:15:32.454Z,9.47
2016-03-06T13:16:32.427Z,9.55
2016-03-06T13:17:32.413Z,9.44
2016-03-06T13:18:32.384Z,9.59
2016-03-06T13:19:32.372Z,9.74
2016-03-06T13:20:32.359Z,9.77